createdAt,value
2017-11-07T00:00:42.128Z,96.03
2017-11-07T00:01:42.443Z,96.08
2017-11-07T00:02:42.430Z,96.08
2017-11-07T00:03:42.100Z,96.93
2017-11-07T00:04:42.415Z,96.26
2017-11-07T00:05:42.081Z,96.93
2017-11-07T00:06:42.394Z,97.02
2017-11-07T00:07:42.062Z,97.36
2017-11-07T00:08:42.053Z,96.31
2017-11-07T00:09:42.372Z,96.12
2017-11-07T00:10:42.358Z,96.22
2017-11-07T00:11:42.349Z,96.6
2017-11-07T00:12:42.350Z,96.31
2017-11-07T00:13:42.009Z,96.03
2017-11-07T00:14:42.322Z,95.75
2017-11-07T00:15:41.989Z,95.75
2017-11-07T00:16:41.980Z,94.89
2017-11-07T00:17:42.300Z,95.08
2017-11-07T00:18:41.961Z,95.36
2017-11-07T00:19:41.952Z,95.27
2017-11-07T00:20:41.945Z,94.89
2017-11-07T00:21:42.267Z,95.08
2017-11-07T00:22:42.350Z,95.94
2017-11-07T00:23:41.915Z,95.27
2017-11-07T00:24:41.905Z,95.36
2017-11-07T00:25:42.220Z,94.89
2017-11-07T00:26:42.224Z,95.79
2017-11-07T00:27:42.199Z,95.84
2017-11-07T00:28:42.196Z,94.98
2017-11-07T00:29:42.181Z,95.12
2017-11-07T00:30:41.856Z,95.36
2017-11-07T00:31:42.169Z,95.89
2017-11-07T00:32:42.157Z,96.08
2017-11-07T00:33:42.144Z,95.6
2017-11-07T00:34:41.812Z,95.7
2017-11-07T00:35:42.128Z,96.26
2017-11-07T00:36:42.119Z,96.5
2017-11-07T00:37:41.786Z,96.22
2017-11-07T00:38:41.777Z,95.75
2017-11-07T00:39:42.091Z,94.89
2017-11-07T00:40:42.078Z,95.27
2017-11-07T00:41:42.070Z,95.75
2017-11-07T00:42:41.738Z,95.65
2017-11-07T00:43:41.730Z,95.75
2017-11-07T00:44:41.719Z,96.17
2017-11-07T00:45:42.033Z,95.84
2017-11-07T00:46:42.123Z,95.94
2017-11-07T00:47:41.691Z,95.65
2017-11-07T00:48:41.684Z,95.89
2017-11-07T00:49:41.994Z,95.84
2017-11-07T00:50:41.986Z,95.75
2017-11-07T00:51:41.655Z,95.75
2017-11-07T00:52:42.068Z,95.89
2017-11-07T00:53:42.057Z,95.7
2017-11-07T00:54:41.948Z,96.36
2017-11-07T00:55:41.619Z,95.89
2017-11-07T00:56:41.606Z,96.26
2017-11-07T00:57:41.700Z,96.36
2017-11-07T00:58:41.590Z,96.55
2017-11-07T00:59:41.907Z,96.22
2017-11-07T01:00:41.893Z,96.22
2017-11-07T01:01:41.885Z,95.75
2017-11-07T01:02:41.655Z,96.5
2017-11-07T01:03:41.546Z,96.17
2017-11-07T01:04:41.855Z,96.08
2017-11-07T01:05:41.846Z,96.31
2017-11-07T01:06:41.837Z,96.26
2017-11-07T01:07:41.828Z,96.08
2017-11-07T01:08:41.818Z,95.6
2017-11-07T01:09:41.486Z,95.98
2017-11-07T01:10:41.479Z,95.89
2017-11-07T01:11:41.791Z,96.83
2017-11-07T01:12:41.783Z,96.64
2017-11-07T01:13:41.775Z,96.64
2017-11-07T01:14:41.765Z,97.02
2017-11-07T01:15:41.431Z,97.22
2017-11-07T01:16:41.750Z,97.78
2017-11-07T01:17:41.413Z,97.92
2017-11-07T01:18:41.403Z,97.36
2017-11-07T01:19:41.717Z,96.41
2017-11-07T01:20:41.386Z,96.31
2017-11-07T01:21:41.701Z,96.83
2017-11-07T01:22:41.689Z,96.64
2017-11-07T01:23:41.459Z,96.64
2017-11-07T01:24:41.346Z,96.31
2017-11-07T01:25:41.339Z,96.83
2017-11-07T01:26:41.650Z,96.83
2017-11-07T01:27:41.647Z,96.74
2017-11-07T01:28:41.632Z,96.83
2017-11-07T01:29:41.624Z,97.02
2017-11-07T01:30:41.392Z,97.6
2017-11-07T01:31:41.606Z,97.6
2017-11-07T01:32:41.596Z,97.69
2017-11-07T01:33:41.587Z,97.88
2017-11-07T01:34:41.578Z,97.17
2017-11-07T01:35:41.244Z,97.64
2017-11-07T01:36:41.242Z,97.27
2017-11-07T01:37:41.551Z,97.45
2017-11-07T01:38:41.542Z,97.45
2017-11-07T01:39:41.533Z,97.07
2017-11-07T01:40:41.521Z,97.17
2017-11-07T01:41:41.515Z,96.93
2017-11-07T01:42:41.507Z,97.41
2017-11-07T01:43:41.495Z,97.5
2017-11-07T01:44:41.487Z,97.07
2017-11-07T01:45:41.151Z,97.45
2017-11-07T01:46:41.471Z,97.83
2017-11-07T01:47:41.459Z,96.98
2017-11-07T01:48:41.449Z,97.17
2017-11-07T01:49:41.116Z,96.22
2017-11-07T01:50:41.428Z,96.41
2017-11-07T01:51:41.421Z,96.88
2017-11-07T01:52:41.088Z,97.02
2017-11-07T01:53:41.401Z,96.55
2017-11-07T01:54:41.069Z,97.12
2017-11-07T01:55:41.061Z,96.93
2017-11-07T01:56:41.051Z,97.5
2017-11-07T01:57:41.045Z,97.6
2017-11-07T01:58:41.031Z,97.22
2017-11-07T01:59:41.343Z,97.22
2017-11-07T02:00:41.339Z,97.55
2017-11-07T02:01:41.426Z,97.6
2017-11-07T02:02:41.315Z,97.55
2017-11-07T02:03:41.308Z,97.36
2017-11-07T02:04:41.297Z,96.88
2017-11-07T02:05:41.298Z,97.6
2017-11-07T02:06:40.958Z,97.5
2017-11-07T02:07:41.272Z,97.55
2017-11-07T02:08:41.272Z,97.74
2017-11-07T02:09:40.929Z,97.27
2017-11-07T02:10:41.245Z,96.69
2017-11-07T02:11:40.910Z,96.88
2017-11-07T02:12:41.226Z,97.07
2017-11-07T02:13:40.994Z,97.27
2017-11-07T02:14:41.205Z,97.69
2017-11-07T02:15:40.872Z,97.17
2017-11-07T02:16:41.197Z,97.41
2017-11-07T02:17:41.289Z,97.6
2017-11-07T02:18:40.846Z,97.97
2017-11-07T02:19:41.157Z,97.88
2017-11-07T02:20:41.155Z,98.26
2017-11-07T02:21:41.143Z,98.31
2017-11-07T02:22:40.808Z,98.12
2017-11-07T02:23:41.128Z,98.02
2017-11-07T02:24:40.791Z,97.45
2017-11-07T02:25:41.120Z,97.64
2017-11-07T02:26:41.096Z,97.45
2017-11-07T02:27:40.761Z,97.55
2017-11-07T02:28:41.078Z,98.21
2017-11-07T02:29:41.064Z,97.64
2017-11-07T02:30:41.056Z,97.64
2017-11-07T02:31:40.722Z,97.55
2017-11-07T02:32:41.039Z,96.69
2017-11-07T02:33:41.039Z,96.88
2017-11-07T02:34:40.697Z,97.17
2017-11-07T02:35:41.012Z,97.36
2017-11-07T02:36:40.677Z,97.69
2017-11-07T02:37:40.769Z,97.69
2017-11-07T02:38:40.985Z,97.97
2017-11-07T02:39:40.970Z,98.07
2017-11-07T02:40:40.965Z,97.78
2017-11-07T02:41:40.958Z,98.07
2017-11-07T02:42:40.943Z,98.54
2017-11-07T02:43:40.936Z,98.07
2017-11-07T02:44:40.931Z,97.88
2017-11-07T02:45:40.923Z,97.92
2017-11-07T02:46:40.908Z,98.21
2017-11-07T02:47:40.901Z,97.88
2017-11-07T02:48:40.887Z,97.6
2017-11-07T02:49:40.881Z,97.97
2017-11-07T02:50:40.872Z,98.35
2017-11-07T02:51:40.537Z,98.26
2017-11-07T02:52:40.860Z,98.16
2017-11-07T02:53:40.858Z,98.31
2017-11-07T02:54:40.852Z,98.4
2017-11-07T02:55:40.499Z,98.21
2017-11-07T02:56:40.490Z,98.02
2017-11-07T02:57:40.478Z,98.31
2017-11-07T02:58:40.796Z,98.69
2017-11-07T02:59:40.891Z,98.12
2017-11-07T03:00:40.781Z,98.21
2017-11-07T03:01:40.445Z,97.92
2017-11-07T03:02:40.773Z,98.31
2017-11-07T03:03:40.848Z,97.55
2017-11-07T03:04:40.738Z,98.21
2017-11-07T03:05:40.729Z,98.12
2017-11-07T03:06:40.396Z,98.12
2017-11-07T03:07:40.716Z,98.12
2017-11-07T03:08:40.376Z,97.45
2017-11-07T03:09:40.693Z,97.74
2017-11-07T03:10:40.683Z,97.69
2017-11-07T03:11:40.672Z,97.88
2017-11-07T03:12:40.340Z,98.07
2017-11-07T03:13:40.331Z,98.31
2017-11-07T03:14:40.322Z,98.12
2017-11-07T03:15:40.313Z,98.31
2017-11-07T03:16:40.302Z,97.92
2017-11-07T03:17:40.298Z,98.45
2017-11-07T03:18:40.286Z,98.4
2017-11-07T03:19:40.272Z,97.92
2017-11-07T03:20:40.588Z,98.5
2017-11-07T03:21:40.257Z,98.79
2017-11-07T03:22:40.573Z,98.59
2017-11-07T03:23:40.238Z,98.12
2017-11-07T03:24:40.231Z,98.4
2017-11-07T03:25:40.545Z,97.92
2017-11-07T03:26:40.211Z,98.35
2017-11-07T03:27:40.204Z,98.31
2017-11-07T03:28:40.516Z,98.31
2017-11-07T03:29:40.511Z,98.73
2017-11-07T03:30:40.500Z,98.45
2017-11-07T03:31:40.519Z,97.88
2017-11-07T03:32:40.155Z,98.64
2017-11-07T03:33:40.468Z,98.54
2017-11-07T03:34:40.137Z,98.97
2017-11-07T03:35:40.448Z,98.88
2017-11-07T03:36:40.439Z,98.88
2017-11-07T03:37:40.106Z,98.88
2017-11-07T03:38:40.107Z,98.59
2017-11-07T03:39:40.417Z,98.5
2017-11-07T03:40:40.407Z,98.97
2017-11-07T03:41:40.071Z,98.88
2017-11-07T03:42:40.059Z,99.02
2017-11-07T03:43:40.377Z,98.79
2017-11-07T03:44:40.375Z,98.59
2017-11-07T03:45:40.363Z,99.07
2017-11-07T03:46:40.023Z,98.54
2017-11-07T03:47:40.013Z,98.92
2017-11-07T03:48:40.004Z,99.49
2017-11-07T03:49:40.425Z,99.68
2017-11-07T03:50:40.312Z,99.02
2017-11-07T03:51:40.301Z,99.16
2017-11-07T03:52:39.967Z,99.35
2017-11-07T03:53:40.286Z,98.69
2017-11-07T03:54:40.380Z,98.88
2017-11-07T03:55:40.263Z,99.49
2017-11-07T03:56:40.253Z,99.64
2017-11-07T03:57:39.921Z,99.4
2017-11-07T03:58:39.916Z,99.54
2017-11-07T03:59:39.900Z,99.3
2017-11-07T04:00:40.213Z,99.54
2017-11-07T04:01:39.881Z,99.54
2017-11-07T04:02:39.871Z,99.35
2017-11-07T04:03:39.859Z,99.16
2017-11-07T04:04:40.281Z,98.97
2017-11-07T04:05:39.843Z,98.4
2017-11-07T04:06:40.154Z,98.69
2017-11-07T04:07:40.149Z,98.64
2017-11-07T04:08:39.818Z,98.31
2017-11-07T04:09:39.804Z,98.31
2017-11-07T04:10:39.809Z,98.59
2017-11-07T04:11:40.109Z,98.73
2017-11-07T04:12:40.102Z,98.26
2017-11-07T04:13:39.768Z,98.83
2017-11-07T04:14:39.763Z,98.83
2017-11-07T04:15:40.084Z,98.45
2017-11-07T04:16:40.067Z,98.45
2017-11-07T04:17:40.061Z,98.45
2017-11-07T04:18:40.049Z,98.45
2017-11-07T04:19:39.713Z,98.64
2017-11-07T04:20:39.805Z,98.4
2017-11-07T04:21:39.693Z,98.45
2017-11-07T04:22:40.015Z,98.54
2017-11-07T04:23:40.002Z,99.3
2017-11-07T04:24:39.668Z,99.21
2017-11-07T04:25:39.657Z,98.92
2017-11-07T04:26:39.850Z,99.3
2017-11-07T04:27:39.638Z,99.44
2017-11-07T04:28:39.955Z,98.69
2017-11-07T04:29:39.620Z,98.97
2017-11-07T04:30:39.933Z,98.88
2017-11-07T04:31:39.924Z,98.59
2017-11-07T04:32:39.914Z,99.54
2017-11-07T04:33:39.579Z,99.54
2017-11-07T04:34:39.571Z,99.73
2017-11-07T04:35:39.566Z,99.44
2017-11-07T04:36:39.883Z,99.35
2017-11-07T04:37:39.866Z,99.35
2017-11-07T04:38:39.537Z,99.73
2017-11-07T04:39:39.623Z,99.44
2017-11-07T04:40:39.516Z,99.44
2017-11-07T04:41:39.504Z,99.54
2017-11-07T04:42:39.826Z,98.79
2017-11-07T04:43:39.486Z,98.69
2017-11-07T04:44:39.480Z,98.5
2017-11-07T04:45:39.468Z,98.69
2017-11-07T04:46:39.458Z,98.4
2017-11-07T04:47:39.800Z,98.31
2017-11-07T04:48:39.869Z,98.79
2017-11-07T04:49:39.753Z,98.59
2017-11-07T04:50:39.421Z,98.21
2017-11-07T04:51:39.412Z,97.92
2017-11-07T04:52:39.418Z,98.12
2017-11-07T04:53:39.396Z,98.21
2017-11-07T04:54:39.705Z,98.69
2017-11-07T04:55:39.695Z,98.02
2017-11-07T04:56:39.687Z,98.4
2017-11-07T04:57:39.358Z,98.69
2017-11-07T04:58:39.347Z,98.79
2017-11-07T04:59:39.339Z,98.69
2017-11-07T05:00:39.649Z,98.5
2017-11-07T05:01:39.640Z,98.59
2017-11-07T05:02:39.310Z,98.69
2017-11-07T05:03:39.303Z,98.02
2017-11-07T05:04:39.713Z,98.69
2017-11-07T05:05:39.280Z,98.5
2017-11-07T05:06:39.594Z,98.12
2017-11-07T05:07:39.591Z,98.59
2017-11-07T05:08:39.254Z,98.88
2017-11-07T05:09:39.669Z,97.92
2017-11-07T05:10:39.561Z,98.12
2017-11-07T05:11:39.554Z,98.69
2017-11-07T05:12:39.219Z,98.59
2017-11-07T05:13:39.536Z,98.79
2017-11-07T05:14:39.196Z,97.92
2017-11-07T05:15:39.509Z,97.92
2017-11-07T05:16:39.502Z,98.12
2017-11-07T05:17:39.168Z,98.5
2017-11-07T05:18:39.486Z,97.92
2017-11-07T05:19:39.484Z,98.12
2017-11-07T05:20:39.466Z,98.12
2017-11-07T05:21:39.134Z,97.92
2017-11-07T05:22:39.123Z,98.4
2017-11-07T05:23:39.115Z,98.21
2017-11-07T05:24:39.428Z,98.59
2017-11-07T05:25:39.195Z,98.12
2017-11-07T05:26:39.084Z,98.4
2017-11-07T05:27:39.073Z,98.21
2017-11-07T05:28:39.392Z,98.31
2017-11-07T05:29:39.058Z,98.02
2017-11-07T05:30:39.378Z,97.74
2017-11-07T05:31:39.037Z,98.12
2017-11-07T05:32:39.364Z,98.02
2017-11-07T05:33:39.022Z,97.92
2017-11-07T05:34:39.010Z,98.21
2017-11-07T05:35:39.008Z,98.12
2017-11-07T05:36:38.991Z,97.92
2017-11-07T05:37:38.985Z,97.83
2017-11-07T05:38:38.972Z,98.21
2017-11-07T05:39:39.292Z,98.31
2017-11-07T05:40:39.281Z,97.64
2017-11-07T05:41:38.951Z,98.12
2017-11-07T05:42:38.939Z,98.21
2017-11-07T05:43:39.247Z,98.21
2017-11-07T05:44:39.243Z,98.02
2017-11-07T05:45:39.233Z,98.69
2017-11-07T05:46:39.222Z,98.59
2017-11-07T05:47:39.214Z,98.69
2017-11-07T05:48:39.209Z,98.31
2017-11-07T05:49:39.194Z,98.31
2017-11-07T05:50:38.860Z,98.12
2017-11-07T05:51:38.950Z,97.83
2017-11-07T05:52:39.167Z,98.31
2017-11-07T05:53:39.157Z,98.4
2017-11-07T05:54:38.829Z,98.02
2017-11-07T05:55:38.915Z,98.4
2017-11-07T05:56:38.802Z,98.31
2017-11-07T05:57:39.116Z,98.31
2017-11-07T05:58:39.106Z,98.5
2017-11-07T05:59:39.094Z,98.69
2017-11-07T06:00:39.084Z,98.88
2017-11-07T06:01:38.754Z,98.59
2017-11-07T06:02:39.108Z,98.88
2017-11-07T06:03:39.064Z,98.97
2017-11-07T06:04:39.055Z,98.5
2017-11-07T06:05:39.047Z,98.4
2017-11-07T06:06:38.715Z,98.79
2017-11-07T06:07:38.700Z,99.07
2017-11-07T06:08:39.017Z,98.59
2017-11-07T06:09:38.680Z,98.59
2017-11-07T06:10:38.998Z,98.97
2017-11-07T06:11:38.988Z,99.07
2017-11-07T06:12:38.980Z,98.69
2017-11-07T06:13:38.972Z,99.16
2017-11-07T06:14:38.957Z,99.26
2017-11-07T06:15:38.629Z,99.73
2017-11-07T06:16:38.942Z,99.73
2017-11-07T06:17:38.608Z,99.73
2017-11-07T06:18:38.599Z,99.92
2017-11-07T06:19:38.591Z,99.92
2017-11-07T06:20:38.584Z,99.73
2017-11-07T06:21:38.571Z,99.35
2017-11-07T06:22:38.561Z,99.07
2017-11-07T06:23:38.550Z,99.92
2017-11-07T06:24:38.542Z,99.92
2017-11-07T06:25:38.856Z,99.44
2017-11-07T06:26:38.522Z,99.73
2017-11-07T06:27:38.837Z,99.83
2017-11-07T06:28:38.504Z,99.99
2017-11-07T06:29:38.824Z,99.99
2017-11-07T06:30:38.907Z,99.99
2017-11-07T06:31:38.475Z,99.99
2017-11-07T06:32:38.796Z,99.99
2017-11-07T06:33:38.778Z,99.99
2017-11-07T06:34:38.449Z,99.83
2017-11-07T06:35:38.763Z,99.44
2017-11-07T06:36:38.436Z,99.16
2017-11-07T06:37:38.421Z,99.35
2017-11-07T06:38:38.733Z,99.73
2017-11-07T06:39:38.402Z,99.16
2017-11-07T06:40:38.716Z,99.26
2017-11-07T06:41:38.382Z,99.73
2017-11-07T06:42:38.373Z,99.83
2017-11-07T06:43:38.688Z,99.73
2017-11-07T06:44:38.676Z,98.69
2017-11-07T06:45:38.343Z,99.07
2017-11-07T06:46:38.658Z,99.54
2017-11-07T06:47:38.330Z,99.73
2017-11-07T06:48:38.318Z,99.54
2017-11-07T06:49:38.306Z,99.44
2017-11-07T06:50:38.723Z,99.44
2017-11-07T06:51:38.613Z,99.35
2017-11-07T06:52:38.282Z,99.16
2017-11-07T06:53:38.270Z,98.59
2017-11-07T06:54:38.587Z,98.83
2017-11-07T06:55:38.252Z,98.31
2017-11-07T06:56:38.244Z,98.69
2017-11-07T06:57:38.235Z,98.59
2017-11-07T06:58:38.224Z,98.59
2017-11-07T06:59:38.214Z,98.59
2017-11-07T07:00:38.530Z,98.59
2017-11-07T07:01:38.195Z,98.97
2017-11-07T07:02:38.510Z,98.88
2017-11-07T07:03:38.176Z,98.97
2017-11-07T07:04:38.170Z,98.88
2017-11-07T07:05:38.490Z,99.35
2017-11-07T07:06:38.150Z,98.4
2017-11-07T07:07:38.144Z,99.07
2017-11-07T07:08:38.467Z,98.79
2017-11-07T07:09:38.448Z,98.97
2017-11-07T07:10:38.115Z,98.5
2017-11-07T07:11:38.106Z,98.79
2017-11-07T07:12:38.420Z,99.54
2017-11-07T07:13:38.413Z,99.54
2017-11-07T07:14:38.078Z,99.16
2017-11-07T07:15:38.393Z,99.54
2017-11-07T07:16:38.059Z,99.54
2017-11-07T07:17:38.050Z,99.44
2017-11-07T07:18:38.366Z,99.44
2017-11-07T07:19:38.354Z,99.64
2017-11-07T07:20:38.344Z,99.35
2017-11-07T07:21:38.020Z,99.16
2017-11-07T07:22:38.327Z,99.02
2017-11-07T07:23:38.416Z,99.16
2017-11-07T07:24:38.310Z,99.64
2017-11-07T07:25:37.977Z,98.69
2017-11-07T07:26:38.289Z,98.59
2017-11-07T07:27:38.290Z,99.35
2017-11-07T07:28:38.273Z,98.74
2017-11-07T07:29:37.936Z,98.83
2017-11-07T07:30:38.263Z,98.5
2017-11-07T07:31:38.237Z,98.5
2017-11-07T07:32:37.910Z,98.79
2017-11-07T07:33:37.898Z,98.97
2017-11-07T07:34:38.212Z,98.59
2017-11-07T07:35:38.204Z,98.64
2017-11-07T07:36:37.870Z,98.21
2017-11-07T07:37:37.861Z,98.12
2017-11-07T07:38:38.173Z,98.12
2017-11-07T07:39:38.165Z,97.92
2017-11-07T07:40:37.832Z,97.88
2017-11-07T07:41:38.151Z,97.83
2017-11-07T07:42:38.140Z,98.12
2017-11-07T07:43:37.802Z,98.21
2017-11-07T07:44:37.794Z,98.07
2017-11-07T07:45:38.109Z,98.26
2017-11-07T07:46:38.100Z,98.07
2017-11-07T07:47:38.091Z,97.69
2017-11-07T07:48:37.759Z,97.31
2017-11-07T07:49:38.173Z,97.03
2017-11-07T07:50:37.738Z,97.22
2017-11-07T07:51:38.053Z,97.12
2017-11-07T07:52:38.059Z,96.93
2017-11-07T07:53:38.035Z,97.41
2017-11-07T07:54:38.028Z,96.74
2017-11-07T07:55:38.024Z,96.74
2017-11-07T07:56:37.685Z,96.65
2017-11-07T07:57:37.676Z,96.55
2017-11-07T07:58:37.769Z,96.36
2017-11-07T07:59:37.658Z,96.17
2017-11-07T08:00:37.975Z,96.26
2017-11-07T08:01:37.967Z,95.98
2017-11-07T08:02:37.956Z,96.65
2017-11-07T08:03:37.946Z,96.55
2017-11-07T08:04:37.936Z,96.84
2017-11-07T08:05:37.926Z,96.36
2017-11-07T08:06:37.915Z,97.12
2017-11-07T08:07:37.906Z,96.55
2017-11-07T08:08:37.575Z,95.98
2017-11-07T08:09:37.991Z,96.26
2017-11-07T08:10:37.558Z,95.22
2017-11-07T08:11:37.877Z,95.79
2017-11-07T08:12:37.540Z,96.17
2017-11-07T08:13:37.853Z,95.98
2017-11-07T08:14:37.849Z,95.79
2017-11-07T08:15:37.838Z,96.08
2017-11-07T08:16:37.502Z,95.98
2017-11-07T08:17:37.492Z,95.79
2017-11-07T08:18:37.804Z,94.74
2017-11-07T08:19:37.474Z,95.22
2017-11-07T08:20:37.790Z,95.12
2017-11-07T08:21:37.785Z,95.98
2017-11-07T08:22:37.769Z,95.32
2017-11-07T08:23:37.438Z,95.22
2017-11-07T08:24:37.751Z,96.17
2017-11-07T08:25:37.421Z,95.89
2017-11-07T08:26:37.733Z,95.98
2017-11-07T08:27:37.402Z,95.79
2017-11-07T08:28:37.393Z,95.79
2017-11-07T08:29:37.383Z,95.79
2017-11-07T08:30:37.703Z,95.56
2017-11-07T08:31:37.367Z,95.75
2017-11-07T08:32:37.356Z,95.94
2017-11-07T08:33:37.346Z,95.75
2017-11-07T08:34:37.657Z,95.17
2017-11-07T08:35:37.659Z,95.08
2017-11-07T08:36:37.318Z,95.03
2017-11-07T08:37:37.311Z,94.93
2017-11-07T08:38:37.625Z,95.03
2017-11-07T08:39:37.290Z,95.41
2017-11-07T08:40:37.606Z,95.32
2017-11-07T08:41:37.272Z,95.12
2017-11-07T08:42:37.586Z,95.12
2017-11-07T08:43:37.578Z,95.03
2017-11-07T08:44:37.569Z,95.41
2017-11-07T08:45:37.559Z,95.98
2017-11-07T08:46:37.547Z,96.08
2017-11-07T08:47:37.217Z,95.98
2017-11-07T08:48:37.532Z,96.08
2017-11-07T08:49:37.200Z,95.12
2017-11-07T08:50:37.189Z,95.12
2017-11-07T08:51:37.182Z,95.03
2017-11-07T08:52:37.169Z,95.12
2017-11-07T08:53:37.482Z,96.17
2017-11-07T08:54:37.154Z,96.08
2017-11-07T08:55:37.471Z,95.89
2017-11-07T08:56:37.138Z,95.89
2017-11-07T08:57:37.447Z,95.22
2017-11-07T08:58:37.115Z,96.08
2017-11-07T08:59:37.107Z,95.98
2017-11-07T09:00:37.416Z,95.89
2017-11-07T09:01:37.413Z,96.45
2017-11-07T09:02:37.400Z,95.89
2017-11-07T09:03:37.068Z,95.98
2017-11-07T09:04:37.383Z,95.98
2017-11-07T09:05:37.374Z,95.32
2017-11-07T09:06:37.366Z,94.84
2017-11-07T09:07:37.036Z,95.51
2017-11-07T09:08:37.022Z,95.89
2017-11-07T09:09:37.015Z,96.17
2017-11-07T09:10:37.004Z,95.89
2017-11-07T09:11:37.322Z,95.41
2017-11-07T09:12:36.987Z,95.79
2017-11-07T09:13:36.977Z,95.6
2017-11-07T09:14:36.969Z,96.45
2017-11-07T09:15:37.286Z,96.17
2017-11-07T09:16:36.957Z,96.26
2017-11-07T09:17:37.263Z,96.55
2017-11-07T09:18:37.276Z,96.55
2017-11-07T09:19:36.926Z,95.89
2017-11-07T09:20:36.915Z,96.17
2017-11-07T09:21:36.914Z,95.98
2017-11-07T09:22:36.896Z,95.98
2017-11-07T09:23:36.940Z,96.08
2017-11-07T09:24:37.200Z,96.45
2017-11-07T09:25:36.869Z,96.74
2017-11-07T09:26:37.199Z,97.03
2017-11-07T09:27:36.849Z,96.93
2017-11-07T09:28:37.271Z,96.93
2017-11-07T09:29:36.831Z,97.41
2017-11-07T09:30:36.821Z,96.84
2017-11-07T09:31:36.815Z,96.84
2017-11-07T09:32:36.803Z,96.74
2017-11-07T09:33:37.117Z,96.55
2017-11-07T09:34:36.784Z,97.12
2017-11-07T09:35:36.774Z,96.74
2017-11-07T09:36:37.099Z,97.03
2017-11-07T09:37:37.083Z,97.03
2017-11-07T09:38:37.072Z,97.69
2017-11-07T09:39:36.740Z,97.31
2017-11-07T09:40:37.052Z,97.31
2017-11-07T09:41:37.054Z,97.5
2017-11-07T09:42:37.042Z,97.78
2017-11-07T09:43:37.026Z,97.69
2017-11-07T09:44:37.021Z,97.88
2017-11-07T09:45:36.786Z,98.26
2017-11-07T09:46:36.999Z,98.45
2017-11-07T09:47:36.990Z,98.17
2017-11-07T09:48:36.982Z,98.07
2017-11-07T09:49:36.651Z,97.5
2017-11-07T09:50:36.966Z,98.45
2017-11-07T09:51:36.630Z,98.55
2017-11-07T09:52:36.949Z,98.64
2017-11-07T09:53:36.939Z,98.74
2017-11-07T09:54:36.602Z,98.45
2017-11-07T09:55:36.935Z,97.97
2017-11-07T09:56:37.110Z,98.93
2017-11-07T09:57:36.575Z,98.55
2017-11-07T09:58:36.893Z,99.02
2017-11-07T09:59:36.558Z,99.11
2017-11-07T10:00:36.871Z,98.93
2017-11-07T10:01:36.542Z,98.64
2017-11-07T10:02:36.529Z,98.83
2017-11-07T10:03:36.841Z,98.55
2017-11-07T10:04:36.511Z,98.83
2017-11-07T10:05:36.829Z,98.74
2017-11-07T10:06:36.815Z,98.83
2017-11-07T10:07:36.808Z,98.93
2017-11-07T10:08:36.798Z,98.74
2017-11-07T10:09:36.466Z,98.83
2017-11-07T10:10:36.779Z,98.36
2017-11-07T10:11:36.771Z,98.93
2017-11-07T10:12:36.436Z,99.69
2017-11-07T10:13:36.425Z,99.78
2017-11-07T10:14:36.419Z,98.64
2017-11-07T10:15:36.738Z,98.74
2017-11-07T10:16:36.402Z,99.59
2017-11-07T10:17:36.427Z,98.74
2017-11-07T10:18:36.383Z,98.93
2017-11-07T10:19:36.697Z,99.78
2017-11-07T10:20:36.688Z,99.4
2017-11-07T10:21:36.686Z,99.5
2017-11-07T10:22:36.345Z,99.59
2017-11-07T10:23:36.664Z,99.11
2017-11-07T10:24:36.327Z,99.21
2017-11-07T10:25:36.320Z,98.83
2017-11-07T10:26:36.633Z,99.21
2017-11-07T10:27:36.626Z,99.02
2017-11-07T10:28:36.619Z,98.74
2017-11-07T10:29:36.607Z,98.64
2017-11-07T10:30:36.376Z,99.78
2017-11-07T10:31:36.264Z,99.78
2017-11-07T10:32:36.253Z,99.59
2017-11-07T10:33:36.245Z,99.59
2017-11-07T10:34:36.235Z,99.69
2017-11-07T10:35:36.551Z,99.3
2017-11-07T10:36:36.216Z,99.3
2017-11-07T10:37:36.216Z,99.59
2017-11-07T10:38:36.298Z,99.59
2017-11-07T10:39:36.189Z,99.3
2017-11-07T10:40:36.504Z,98.45
2017-11-07T10:41:36.168Z,98.55
2017-11-07T10:42:36.160Z,99.59
2017-11-07T10:43:36.154Z,99.69
2017-11-07T10:44:36.566Z,99.59
2017-11-07T10:45:36.455Z,99.59
2017-11-07T10:46:36.448Z,99.3
2017-11-07T10:47:36.439Z,99.59
2017-11-07T10:48:36.107Z,99.4
2017-11-07T10:49:36.094Z,99.59
2017-11-07T10:50:36.409Z,99.21
2017-11-07T10:51:36.419Z,99.21
2017-11-07T10:52:36.389Z,99.4
2017-11-07T10:53:36.384Z,99.78
2017-11-07T10:54:36.050Z,99.4
2017-11-07T10:55:36.039Z,99.59
2017-11-07T10:56:36.367Z,98.83
2017-11-07T10:57:36.342Z,99.21
2017-11-07T10:58:36.342Z,98.74
2017-11-07T10:59:36.428Z,98.83
2017-11-07T11:00:36.320Z,99.21
2017-11-07T11:01:36.315Z,98.83
2017-11-07T11:02:35.977Z,99.21
2017-11-07T11:03:36.292Z,98.45
2017-11-07T11:04:36.380Z,98.64
2017-11-07T11:05:36.276Z,98.83
2017-11-07T11:06:36.268Z,98.83
2017-11-07T11:07:35.928Z,98.83
2017-11-07T11:08:36.243Z,98.6
2017-11-07T11:09:36.333Z,98.83
2017-11-07T11:10:36.227Z,98.6
2017-11-07T11:11:36.215Z,99.02
2017-11-07T11:12:36.206Z,98.79
2017-11-07T11:13:35.874Z,98.26
2017-11-07T11:14:36.188Z,98.26
2017-11-07T11:15:35.857Z,97.97
2017-11-07T11:16:36.172Z,98.26
2017-11-07T11:17:35.838Z,98.26
2017-11-07T11:18:35.830Z,98.07
2017-11-07T11:19:36.145Z,98.07
2017-11-07T11:20:35.812Z,98.07
2017-11-07T11:21:36.131Z,97.88
2017-11-07T11:22:36.117Z,97.88
2017-11-07T11:23:36.105Z,97.88
2017-11-07T11:24:36.099Z,97.78
2017-11-07T11:25:35.764Z,97.41
2017-11-07T11:26:35.756Z,97.31
2017-11-07T11:27:36.176Z,97.12
2017-11-07T11:28:35.736Z,96.84
2017-11-07T11:29:36.056Z,96.93
2017-11-07T11:30:36.046Z,97.31
2017-11-07T11:31:35.712Z,96.93
2017-11-07T11:32:36.125Z,97.12
2017-11-07T11:33:36.017Z,96.84
2017-11-07T11:34:36.105Z,96.93
2017-11-07T11:35:35.674Z,97.12
2017-11-07T11:36:35.664Z,97.41
2017-11-07T11:37:35.656Z,96.36
2017-11-07T11:38:35.644Z,96.84
2017-11-07T11:39:35.635Z,97.03
2017-11-07T11:40:35.947Z,95.98
2017-11-07T11:41:35.616Z,96.36
2017-11-07T11:42:35.933Z,96.08
2017-11-07T11:43:35.598Z,96.36
2017-11-07T11:44:35.590Z,96.93
2017-11-07T11:45:35.904Z,96.65
2017-11-07T11:46:35.572Z,96.55
2017-11-07T11:47:35.563Z,96.45
2017-11-07T11:48:35.881Z,96.55
2017-11-07T11:49:35.870Z,96.93
2017-11-07T11:50:35.857Z,96.26
2017-11-07T11:51:35.526Z,96.65
2017-11-07T11:52:35.839Z,96.65
2017-11-07T11:53:35.828Z,96.45
2017-11-07T11:54:35.818Z,96.45
2017-11-07T11:55:35.487Z,95.89
2017-11-07T11:56:35.802Z,95.41
2017-11-07T11:57:35.791Z,95.32
2017-11-07T11:58:35.461Z,94.93
2017-11-07T11:59:35.452Z,95.03
2017-11-07T12:00:35.766Z,95.32
2017-11-07T12:01:35.443Z,94.74
2017-11-07T12:02:35.424Z,95.22
2017-11-07T12:03:35.749Z,95.22
2017-11-07T12:04:35.731Z,94.93
2017-11-07T12:05:35.397Z,94.46
2017-11-07T12:06:35.711Z,95.32
2017-11-07T12:07:35.377Z,94.74
2017-11-07T12:08:35.702Z,94.18
2017-11-07T12:09:35.681Z,94.27
2017-11-07T12:10:35.678Z,94.08
2017-11-07T12:11:35.341Z,94.27
2017-11-07T12:12:35.663Z,93.6
2017-11-07T12:13:48.453Z,94.18
2017-11-07T12:14:48.768Z,94.46
2017-11-07T12:15:48.760Z,94.37
2017-11-07T12:16:48.758Z,93.99
2017-11-07T12:17:48.417Z,94.08
2017-11-07T12:18:48.832Z,93.89
2017-11-07T12:19:48.724Z,94.27
2017-11-07T12:20:48.489Z,94.37
2017-11-07T12:21:48.380Z,94.27
2017-11-07T12:22:48.371Z,94.27
2017-11-07T12:23:48.365Z,94.37
2017-11-07T12:24:48.676Z,94.27
2017-11-07T12:25:48.674Z,94.27
2017-11-07T12:26:48.342Z,94.27
2017-11-07T12:27:48.328Z,94.46
2017-11-07T12:28:48.317Z,94.37
2017-11-07T12:29:48.648Z,94.37
2017-11-07T12:30:48.619Z,94.18
2017-11-07T12:31:48.610Z,94.08
2017-11-07T12:32:48.278Z,93.79
2017-11-07T12:33:48.271Z,94.65
2017-11-07T12:34:48.584Z,94.74
2017-11-07T12:35:48.252Z,94.56
2017-11-07T12:36:48.570Z,93.99
2017-11-07T12:37:48.556Z,94.37
2017-11-07T12:38:48.559Z,93.79
2017-11-07T12:39:48.539Z,93.13
2017-11-07T12:40:48.307Z,93.04
2017-11-07T12:41:48.521Z,93.04
2017-11-07T12:42:48.191Z,93.41
2017-11-07T12:43:48.178Z,93.6
2017-11-07T12:44:48.169Z,93.99
2017-11-07T12:45:48.161Z,94.18
2017-11-07T12:46:48.150Z,94.08
2017-11-07T12:47:48.466Z,94.18
2017-11-07T12:48:48.132Z,93.99
2017-11-07T12:49:48.453Z,93.89
2017-11-07T12:50:48.112Z,94.89
2017-11-07T12:51:48.106Z,93.94
2017-11-07T12:52:48.427Z,94.32
2017-11-07T12:53:48.087Z,94.42
2017-11-07T12:54:48.076Z,94.03